sensor_id;sensor_type;location;lat;lon;timestamp;P1;durP1;ratioP1;P2;durP2;ratioP2
14133;SDS011;7147;59.364;18.018;2022-12-18T00:02:20;13.27;;;4.93;;
14133;SDS011;7147;59.364;18.018;2022-12-18T00:04:47;13.95;;;4.88;;
14133;SDS011;7147;59.364;18.018;2022-12-18T00:07:15;21.48;;;5.85;;
14133;SDS011;7147;59.364;18.018;2022-12-18T00:09:41;16.80;;;5.90;;
14133;SDS011;7147;59.364;18.018;2022-12-18T00:12:08;17.90;;;5.47;;
14133;SDS011;7147;59.364;18.018;2022-12-18T00:14:36;15.68;;;5.30;;
14133;SDS011;7147;59.364;18.018;2022-12-18T00:17:02;20.75;;;5.88;;
14133;SDS011;7147;59.364;18.018;2022-12-18T00:19:29;17.50;;;5.22;;
14133;SDS011;7147;59.364;18.018;2022-12-18T00:21:56;18.25;;;5.50;;
14133;SDS011;7147;59.364;18.018;2022-12-18T00:24:26;22.73;;;6.50;;
14133;SDS011;7147;59.364;18.018;2022-12-18T00:26:52;20.75;;;6.13;;
14133;SDS011;7147;59.364;18.018;2022-12-18T00:29:19;18.88;;;5.47;;
14133;SDS011;7147;59.364;18.018;2022-12-18T00:31:46;17.20;;;4.70;;
14133;SDS011;7147;59.364;18.018;2022-12-18T00:34:13;19.20;;;5.72;;
14133;SDS011;7147;59.364;18.018;2022-12-18T00:36:40;21.58;;;5.68;;
14133;SDS011;7147;59.364;18.018;2022-12-18T00:39:10;23.00;;;6.55;;
14133;SDS011;7147;59.364;18.018;2022-12-18T00:41:39;19.00;;;5.23;;
14133;SDS011;7147;59.364;18.018;2022-12-18T00:44:23;20.93;;;5.87;;
14133;SDS011;7147;59.364;18.018;2022-12-18T00:46:50;19.77;;;5.85;;
14133;SDS011;7147;59.364;18.018;2022-12-18T00:49:17;19.33;;;5.90;;
14133;SDS011;7147;59.364;18.018;2022-12-18T00:51:45;20.92;;;5.78;;
14133;SDS011;7147;59.364;18.018;2022-12-18T00:54:12;22.77;;;6.18;;
14133;SDS011;7147;59.364;18.018;2022-12-18T00:56:41;21.00;;;6.00;;
14133;SDS011;7147;59.364;18.018;2022-12-18T00:59:07;19.65;;;5.97;;
14133;SDS011;7147;59.364;18.018;2022-12-18T01:01:35;7.38;;;2.92;;
14133;SDS011;7147;59.364;18.018;2022-12-18T01:04:02;7.28;;;3.25;;
14133;SDS011;7147;59.364;18.018;2022-12-18T01:06:29;9.38;;;3.75;;
14133;SDS011;7147;59.364;18.018;2022-12-18T01:08:56;6.32;;;2.90;;
14133;SDS011;7147;59.364;18.018;2022-12-18T01:11:23;9.18;;;3.33;;
14133;SDS011;7147;59.364;18.018;2022-12-18T01:13:53;10.50;;;3.83;;
14133;SDS011;7147;59.364;18.018;2022-12-18T01:16:20;16.33;;;5.20;;
14133;SDS011;7147;59.364;18.018;2022-12-18T01:18:53;11.18;;;4.30;;
14133;SDS011;7147;59.364;18.018;2022-12-18T01:21:20;10.27;;;4.10;;
14133;SDS011;7147;59.364;18.018;2022-12-18T01:23:50;8.80;;;3.50;;
14133;SDS011;7147;59.364;18.018;2022-12-18T01:26:18;10.23;;;3.97;;
14133;SDS011;7147;59.364;18.018;2022-12-18T01:28:46;9.13;;;3.30;;
14133;SDS011;7147;59.364;18.018;2022-12-18T01:31:15;11.90;;;4.32;;
14133;SDS011;7147;59.364;18.018;2022-12-18T01:33:44;15.65;;;4.97;;
14133;SDS011;7147;59.364;18.018;2022-12-18T01:36:15;13.02;;;4.50;;
14133;SDS011;7147;59.364;18.018;2022-12-18T01:38:44;12.98;;;4.78;;
14133;SDS011;7147;59.364;18.018;2022-12-18T01:41:12;11.80;;;4.23;;
14133;SDS011;7147;59.364;18.018;2022-12-18T01:43:41;12.00;;;4.55;;
14133;SDS011;7147;59.364;18.018;2022-12-18T01:46:09;11.77;;;4.55;;
14133;SDS011;7147;59.364;18.018;2022-12-18T01:48:37;8.68;;;3.75;;
14133;SDS011;7147;59.364;18.018;2022-12-18T01:51:05;13.50;;;4.20;;
14133;SDS011;7147;59.364;18.018;2022-12-18T01:53:33;10.98;;;4.20;;
14133;SDS011;7147;59.364;18.018;2022-12-18T01:56:00;10.35;;;4.03;;
14133;SDS011;7147;59.364;18.018;2022-12-18T01:58:30;13.27;;;4.60;;
14133;SDS011;7147;59.364;18.018;2022-12-18T02:01:03;12.38;;;4.45;;
14133;SDS011;7147;59.364;18.018;2022-12-18T02:03:30;11.98;;;3.92;;
14133;SDS011;7147;59.364;18.018;2022-12-18T02:05:59;10.07;;;4.05;;
14133;SDS011;7147;59.364;18.018;2022-12-18T02:08:33;12.13;;;4.32;;
14133;SDS011;7147;59.364;18.018;2022-12-18T02:11:07;14.05;;;4.90;;
14133;SDS011;7147;59.364;18.018;2022-12-18T02:13:43;8.57;;;3.43;;
14133;SDS011;7147;59.364;18.018;2022-12-18T02:16:18;9.00;;;3.63;;
14133;SDS011;7147;59.364;18.018;2022-12-18T02:18:51;12.82;;;4.07;;
14133;SDS011;7147;59.364;18.018;2022-12-18T02:21:27;11.25;;;4.35;;
14133;SDS011;7147;59.364;18.018;2022-12-18T02:24:02;8.75;;;3.38;;
14133;SDS011;7147;59.364;18.018;2022-12-18T02:26:45;12.13;;;4.40;;
14133;SDS011;7147;59.364;18.018;2022-12-18T02:29:15;9.68;;;3.67;;
14133;SDS011;7147;59.364;18.018;2022-12-18T02:31:45;7.73;;;3.13;;
14133;SDS011;7147;59.364;18.018;2022-12-18T02:34:17;8.57;;;3.67;;
14133;SDS011;7147;59.364;18.018;2022-12-18T02:36:46;8.98;;;3.72;;
14133;SDS011;7147;59.364;18.018;2022-12-18T02:39:15;10.05;;;3.67;;
14133;SDS011;7147;59.364;18.018;2022-12-18T02:41:45;12.45;;;4.35;;
14133;SDS011;7147;59.364;18.018;2022-12-18T02:44:13;9.90;;;3.50;;
14133;SDS011;7147;59.364;18.018;2022-12-18T02:46:41;10.77;;;4.17;;
14133;SDS011;7147;59.364;18.018;2022-12-18T02:49:12;15.90;;;4.28;;
14133;SDS011;7147;59.364;18.018;2022-12-18T02:51:50;11.57;;;4.35;;
14133;SDS011;7147;59.364;18.018;2022-12-18T02:54:23;8.90;;;3.88;;
14133;SDS011;7147;59.364;18.018;2022-12-18T02:57:03;12.13;;;4.35;;
14133;SDS011;7147;59.364;18.018;2022-12-18T02:59:39;10.03;;;3.83;;
14133;SDS011;7147;59.364;18.018;2022-12-18T03:02:17;11.35;;;4.18;;
14133;SDS011;7147;59.364;18.018;2022-12-18T03:04:48;13.20;;;4.35;;
14133;SDS011;7147;59.364;18.018;2022-12-18T03:07:23;11.10;;;4.37;;
14133;SDS011;7147;59.364;18.018;2022-12-18T03:09:54;14.00;;;4.90;;
14133;SDS011;7147;59.364;18.018;2022-12-18T03:12:24;17.15;;;5.20;;
14133;SDS011;7147;59.364;18.018;2022-12-18T03:14:57;14.75;;;4.80;;
14133;SDS011;7147;59.364;18.018;2022-12-18T03:17:30;12.90;;;4.47;;
14133;SDS011;7147;59.364;18.018;2022-12-18T03:20:00;19.47;;;6.90;;
14133;SDS011;7147;59.364;18.018;2022-12-18T03:22:32;15.73;;;4.93;;
14133;SDS011;7147;59.364;18.018;2022-12-18T03:25:01;16.80;;;4.93;;
14133;SDS011;7147;59.364;18.018;2022-12-18T03:27:32;17.30;;;4.93;;
14133;SDS011;7147;59.364;18.018;2022-12-18T03:30:03;15.20;;;4.93;;
14133;SDS011;7147;59.364;18.018;2022-12-18T03:32:35;13.07;;;4.55;;
14133;SDS011;7147;59.364;18.018;2022-12-18T03:35:06;10.63;;;3.60;;
14133;SDS011;7147;59.364;18.018;2022-12-18T03:37:36;13.48;;;4.47;;
14133;SDS011;7147;59.364;18.018;2022-12-18T03:40:04;14.68;;;4.78;;
14133;SDS011;7147;59.364;18.018;2022-12-18T03:42:35;8.98;;;3.75;;
14133;SDS011;7147;59.364;18.018;2022-12-18T03:45:09;11.57;;;4.05;;
14133;SDS011;7147;59.364;18.018;2022-12-18T03:47:41;12.68;;;4.68;;
14133;SDS011;7147;59.364;18.018;2022-12-18T03:50:18;9.80;;;3.63;;
14133;SDS011;7147;59.364;18.018;2022-12-18T03:52:49;12.95;;;4.75;;
14133;SDS011;7147;59.364;18.018;2022-12-18T03:55:19;13.18;;;4.15;;
14133;SDS011;7147;59.364;18.018;2022-12-18T03:57:50;9.57;;;3.45;;
14133;SDS011;7147;59.364;18.018;2022-12-18T04:00:19;14.05;;;4.40;;
14133;SDS011;7147;59.364;18.018;2022-12-18T04:02:48;12.52;;;4.25;;
14133;SDS011;7147;59.364;18.018;2022-12-18T04:05:17;13.35;;;4.63;;
14133;SDS011;7147;59.364;18.018;2022-12-18T04:07:45;11.80;;;4.20;;
14133;SDS011;7147;59.364;18.018;2022-12-18T04:10:14;10.93;;;4.25;;
14133;SDS011;7147;59.364;18.018;2022-12-18T04:12:42;12.85;;;4.40;;
14133;SDS011;7147;59.364;18.018;2022-12-18T04:15:11;9.60;;;3.67;;
14133;SDS011;7147;59.364;18.018;2022-12-18T04:17:39;13.23;;;4.30;;
14133;SDS011;7147;59.364;18.018;2022-12-18T04:20:13;12.68;;;4.20;;
14133;SDS011;7147;59.364;18.018;2022-12-18T04:22:41;11.55;;;4.00;;
14133;SDS011;7147;59.364;18.018;2022-12-18T04:25:08;15.13;;;5.13;;
14133;SDS011;7147;59.364;18.018;2022-12-18T04:27:35;15.77;;;4.60;;
14133;SDS011;7147;59.364;18.018;2022-12-18T04:30:02;13.93;;;4.65;;
14133;SDS011;7147;59.364;18.018;2022-12-18T04:32:31;14.37;;;4.37;;
14133;SDS011;7147;59.364;18.018;2022-12-18T04:34:59;12.60;;;4.60;;
14133;SDS011;7147;59.364;18.018;2022-12-18T04:37:26;13.10;;;4.63;;
14133;SDS011;7147;59.364;18.018;2022-12-18T04:39:53;11.13;;;4.20;;
14133;SDS011;7147;59.364;18.018;2022-12-18T04:42:20;11.90;;;4.30;;
14133;SDS011;7147;59.364;18.018;2022-12-18T04:44:46;11.57;;;4.45;;
14133;SDS011;7147;59.364;18.018;2022-12-18T04:47:13;11.67;;;4.27;;
14133;SDS011;7147;59.364;18.018;2022-12-18T04:49:41;12.05;;;4.03;;
14133;SDS011;7147;59.364;18.018;2022-12-18T04:52:08;12.85;;;4.70;;
14133;SDS011;7147;59.364;18.018;2022-12-18T04:54:35;14.80;;;4.80;;
14133;SDS011;7147;59.364;18.018;2022-12-18T04:57:01;14.57;;;4.90;;
14133;SDS011;7147;59.364;18.018;2022-12-18T04:59:28;11.57;;;4.20;;
14133;SDS011;7147;59.364;18.018;2022-12-18T05:01:55;13.25;;;4.72;;
14133;SDS011;7147;59.364;18.018;2022-12-18T05:04:22;9.38;;;3.67;;
14133;SDS011;7147;59.364;18.018;2022-12-18T05:06:50;13.18;;;4.72;;
14133;SDS011;7147;59.364;18.018;2022-12-18T05:09:17;11.30;;;4.28;;
14133;SDS011;7147;59.364;18.018;2022-12-18T05:11:44;11.13;;;3.90;;
14133;SDS011;7147;59.364;18.018;2022-12-18T05:14:11;13.48;;;4.63;;
14133;SDS011;7147;59.364;18.018;2022-12-18T05:16:38;14.38;;;4.70;;
14133;SDS011;7147;59.364;18.018;2022-12-18T05:19:05;11.80;;;4.45;;
14133;SDS011;7147;59.364;18.018;2022-12-18T05:21:31;12.85;;;4.55;;
14133;SDS011;7147;59.364;18.018;2022-12-18T05:24:00;16.03;;;5.37;;
14133;SDS011;7147;59.364;18.018;2022-12-18T05:26:26;10.27;;;3.95;;
14133;SDS011;7147;59.364;18.018;2022-12-18T05:28:53;22.35;;;5.90;;
14133;SDS011;7147;59.364;18.018;2022-12-18T05:31:20;26.98;;;6.97;;
14133;SDS011;7147;59.364;18.018;2022-12-18T05:33:47;23.58;;;6.15;;
14133;SDS011;7147;59.364;18.018;2022-12-18T05:36:13;21.73;;;5.90;;
14133;SDS011;7147;59.364;18.018;2022-12-18T05:38:40;24.17;;;6.17;;
14133;SDS011;7147;59.364;18.018;2022-12-18T05:41:08;21.80;;;6.00;;
14133;SDS011;7147;59.364;18.018;2022-12-18T05:43:35;22.55;;;6.18;;
14133;SDS011;7147;59.364;18.018;2022-12-18T05:46:04;23.50;;;6.55;;
14133;SDS011;7147;59.364;18.018;2022-12-18T05:48:31;22.63;;;6.10;;
14133;SDS011;7147;59.364;18.018;2022-12-18T05:51:02;24.80;;;6.22;;
14133;SDS011;7147;59.364;18.018;2022-12-18T05:53:31;24.83;;;6.30;;
14133;SDS011;7147;59.364;18.018;2022-12-18T05:55:59;24.00;;;6.18;;
14133;SDS011;7147;59.364;18.018;2022-12-18T05:58:28;22.40;;;5.78;;
14133;SDS011;7147;59.364;18.018;2022-12-18T06:00:55;23.92;;;6.03;;
14133;SDS011;7147;59.364;18.018;2022-12-18T06:03:23;22.48;;;6.07;;
14133;SDS011;7147;59.364;18.018;2022-12-18T06:05:50;21.02;;;5.55;;
14133;SDS011;7147;59.364;18.018;2022-12-18T06:08:17;20.60;;;5.63;;
14133;SDS011;7147;59.364;18.018;2022-12-18T06:10:49;20.75;;;5.50;;
14133;SDS011;7147;59.364;18.018;2022-12-18T06:13:17;22.67;;;5.72;;
14133;SDS011;7147;59.364;18.018;2022-12-18T06:15:46;22.10;;;5.78;;
14133;SDS011;7147;59.364;18.018;2022-12-18T06:18:12;27.10;;;7.05;;
14133;SDS011;7147;59.364;18.018;2022-12-18T06:20:39;33.90;;;8.63;;
14133;SDS011;7147;59.364;18.018;2022-12-18T06:23:06;24.35;;;6.20;;
14133;SDS011;7147;59.364;18.018;2022-12-18T06:25:33;27.75;;;6.35;;
14133;SDS011;7147;59.364;18.018;2022-12-18T06:28:02;23.88;;;5.90;;
14133;SDS011;7147;59.364;18.018;2022-12-18T06:30:29;19.75;;;5.38;;
14133;SDS011;7147;59.364;18.018;2022-12-18T06:32:57;27.02;;;6.50;;
14133;SDS011;7147;59.364;18.018;2022-12-18T06:35:24;30.45;;;7.07;;
14133;SDS011;7147;59.364;18.018;2022-12-18T06:37:51;26.57;;;6.17;;
14133;SDS011;7147;59.364;18.018;2022-12-18T06:40:18;33.10;;;8.27;;
14133;SDS011;7147;59.364;18.018;2022-12-18T06:42:45;26.40;;;6.15;;
14133;SDS011;7147;59.364;18.018;2022-12-18T06:45:15;23.88;;;5.75;;
14133;SDS011;7147;59.364;18.018;2022-12-18T06:47:42;24.13;;;5.93;;
14133;SDS011;7147;59.364;18.018;2022-12-18T06:50:10;26.77;;;6.45;;
14133;SDS011;7147;59.364;18.018;2022-12-18T06:52:38;25.23;;;6.30;;
14133;SDS011;7147;59.364;18.018;2022-12-18T06:55:05;25.00;;;6.07;;
14133;SDS011;7147;59.364;18.018;2022-12-18T06:57:33;28.90;;;7.00;;
14133;SDS011;7147;59.364;18.018;2022-12-18T07:00:00;27.70;;;6.63;;
14133;SDS011;7147;59.364;18.018;2022-12-18T07:02:27;24.98;;;6.10;;
14133;SDS011;7147;59.364;18.018;2022-12-18T07:04:54;15.88;;;4.82;;
14133;SDS011;7147;59.364;18.018;2022-12-18T07:07:23;19.95;;;5.50;;
14133;SDS011;7147;59.364;18.018;2022-12-18T07:09:50;17.08;;;5.10;;
14133;SDS011;7147;59.364;18.018;2022-12-18T07:12:17;15.45;;;4.97;;
14133;SDS011;7147;59.364;18.018;2022-12-18T07:14:44;16.63;;;4.90;;
14133;SDS011;7147;59.364;18.018;2022-12-18T07:17:10;18.52;;;5.50;;
14133;SDS011;7147;59.364;18.018;2022-12-18T07:19:37;22.13;;;6.43;;
14133;SDS011;7147;59.364;18.018;2022-12-18T07:22:04;16.52;;;4.78;;
14133;SDS011;7147;59.364;18.018;2022-12-18T07:24:33;16.77;;;4.90;;
14133;SDS011;7147;59.364;18.018;2022-12-18T07:27:00;15.23;;;4.78;;
14133;SDS011;7147;59.364;18.018;2022-12-18T07:29:27;15.27;;;4.65;;
14133;SDS011;7147;59.364;18.018;2022-12-18T07:31:54;14.43;;;4.45;;
14133;SDS011;7147;59.364;18.018;2022-12-18T07:34:20;16.77;;;5.22;;
14133;SDS011;7147;59.364;18.018;2022-12-18T07:36:47;22.07;;;6.23;;
14133;SDS011;7147;59.364;18.018;2022-12-18T07:39:14;20.80;;;5.90;;
14133;SDS011;7147;59.364;18.018;2022-12-18T07:41:42;17.83;;;5.32;;
14133;SDS011;7147;59.364;18.018;2022-12-18T07:44:29;20.58;;;5.72;;
14133;SDS011;7147;59.364;18.018;2022-12-18T07:46:56;17.47;;;5.13;;
14133;SDS011;7147;59.364;18.018;2022-12-18T07:49:22;21.97;;;6.57;;
14133;SDS011;7147;59.364;18.018;2022-12-18T07:51:49;20.20;;;5.75;;
14133;SDS011;7147;59.364;18.018;2022-12-18T07:54:16;22.10;;;6.40;;
14133;SDS011;7147;59.364;18.018;2022-12-18T07:56:44;19.75;;;5.75;;
14133;SDS011;7147;59.364;18.018;2022-12-18T07:59:11;18.90;;;5.17;;
14133;SDS011;7147;59.364;18.018;2022-12-18T08:01:38;19.38;;;5.72;;
14133;SDS011;7147;59.364;18.018;2022-12-18T08:04:05;19.95;;;5.90;;
14133;SDS011;7147;59.364;18.018;2022-12-18T08:06:31;20.33;;;5.88;;
14133;SDS011;7147;59.364;18.018;2022-12-18T08:08:58;19.20;;;5.47;;
14133;SDS011;7147;59.364;18.018;2022-12-18T08:11:26;18.38;;;5.63;;
14133;SDS011;7147;59.364;18.018;2022-12-18T08:13:55;19.20;;;5.70;;
14133;SDS011;7147;59.364;18.018;2022-12-18T08:16:23;23.10;;;6.78;;
14133;SDS011;7147;59.364;18.018;2022-12-18T08:18:51;22.67;;;5.85;;
14133;SDS011;7147;59.364;18.018;2022-12-18T08:21:19;24.90;;;6.55;;
14133;SDS011;7147;59.364;18.018;2022-12-18T08:23:48;34.80;;;8.53;;
14133;SDS011;7147;59.364;18.018;2022-12-18T08:26:15;26.65;;;7.20;;
14133;SDS011;7147;59.364;18.018;2022-12-18T08:28:42;23.58;;;6.32;;
14133;SDS011;7147;59.364;18.018;2022-12-18T08:31:10;22.88;;;5.93;;
14133;SDS011;7147;59.364;18.018;2022-12-18T08:33:37;20.70;;;6.00;;
14133;SDS011;7147;59.364;18.018;2022-12-18T08:36:05;26.75;;;6.72;;
14133;SDS011;7147;59.364;18.018;2022-12-18T08:38:33;27.83;;;7.03;;
14133;SDS011;7147;59.364;18.018;2022-12-18T08:41:00;21.88;;;5.80;;
14133;SDS011;7147;59.364;18.018;2022-12-18T08:43:28;27.53;;;7.10;;
14133;SDS011;7147;59.364;18.018;2022-12-18T08:46:17;22.95;;;6.00;;
14133;SDS011;7147;59.364;18.018;2022-12-18T08:48:44;27.52;;;6.70;;
14133;SDS011;7147;59.364;18.018;2022-12-18T08:51:11;32.83;;;7.53;;
14133;SDS011;7147;59.364;18.018;2022-12-18T08:53:38;27.85;;;6.90;;
14133;SDS011;7147;59.364;18.018;2022-12-18T08:56:05;27.20;;;6.55;;
14133;SDS011;7147;59.364;18.018;2022-12-18T08:58:32;28.10;;;6.83;;
14133;SDS011;7147;59.364;18.018;2022-12-18T09:00:59;25.70;;;6.47;;
14133;SDS011;7147;59.364;18.018;2022-12-18T09:03:28;28.10;;;6.75;;
14133;SDS011;7147;59.364;18.018;2022-12-18T09:05:55;32.63;;;7.75;;
14133;SDS011;7147;59.364;18.018;2022-12-18T09:08:22;28.48;;;6.75;;
14133;SDS011;7147;59.364;18.018;2022-12-18T09:10:49;35.33;;;7.57;;
14133;SDS011;7147;59.364;18.018;2022-12-18T09:13:17;30.15;;;7.03;;
14133;SDS011;7147;59.364;18.018;2022-12-18T09:15:45;7.93;;;3.07;;
14133;SDS011;7147;59.364;18.018;2022-12-18T09:18:15;10.35;;;3.10;;
14133;SDS011;7147;59.364;18.018;2022-12-18T09:20:45;6.13;;;2.85;;
14133;SDS011;7147;59.364;18.018;2022-12-18T09:23:13;9.57;;;3.57;;
14133;SDS011;7147;59.364;18.018;2022-12-18T09:25:40;8.35;;;3.55;;
14133;SDS011;7147;59.364;18.018;2022-12-18T09:28:10;6.95;;;2.67;;
14133;SDS011;7147;59.364;18.018;2022-12-18T09:30:38;7.85;;;2.92;;
14133;SDS011;7147;59.364;18.018;2022-12-18T09:33:06;10.00;;;2.90;;
14133;SDS011;7147;59.364;18.018;2022-12-18T09:35:32;6.78;;;2.70;;
14133;SDS011;7147;59.364;18.018;2022-12-18T09:38:03;7.20;;;2.78;;
14133;SDS011;7147;59.364;18.018;2022-12-18T09:40:35;6.85;;;2.95;;
14133;SDS011;7147;59.364;18.018;2022-12-18T09:43:09;11.10;;;4.15;;
14133;SDS011;7147;59.364;18.018;2022-12-18T09:45:43;8.10;;;3.22;;
14133;SDS011;7147;59.364;18.018;2022-12-18T09:48:18;11.23;;;4.22;;
14133;SDS011;7147;59.364;18.018;2022-12-18T09:50:47;10.98;;;4.05;;
14133;SDS011;7147;59.364;18.018;2022-12-18T09:53:19;10.93;;;3.97;;
14133;SDS011;7147;59.364;18.018;2022-12-18T09:55:49;10.82;;;3.45;;
14133;SDS011;7147;59.364;18.018;2022-12-18T09:58:19;8.75;;;3.30;;
14133;SDS011;7147;59.364;18.018;2022-12-18T10:00:53;20.47;;;5.80;;
14133;SDS011;7147;59.364;18.018;2022-12-18T10:03:20;20.25;;;5.60;;
14133;SDS011;7147;59.364;18.018;2022-12-18T10:05:51;18.77;;;6.15;;
14133;SDS011;7147;59.364;18.018;2022-12-18T10:08:32;15.48;;;4.88;;
14133;SDS011;7147;59.364;18.018;2022-12-18T10:11:12;17.70;;;5.43;;
14133;SDS011;7147;59.364;18.018;2022-12-18T10:13:52;18.63;;;5.35;;
14133;SDS011;7147;59.364;18.018;2022-12-18T10:16:27;17.83;;;5.20;;
14133;SDS011;7147;59.364;18.018;2022-12-18T10:19:07;19.77;;;5.68;;
14133;SDS011;7147;59.364;18.018;2022-12-18T10:21:45;18.48;;;5.53;;
14133;SDS011;7147;59.364;18.018;2022-12-18T10:24:26;25.40;;;6.85;;
14133;SDS011;7147;59.364;18.018;2022-12-18T10:26:59;20.02;;;5.45;;
14133;SDS011;7147;59.364;18.018;2022-12-18T10:29:37;26.65;;;7.00;;
14133;SDS011;7147;59.364;18.018;2022-12-18T10:32:04;25.23;;;6.55;;
14133;SDS011;7147;59.364;18.018;2022-12-18T10:34:31;20.42;;;5.50;;
14133;SDS011;7147;59.364;18.018;2022-12-18T10:36:59;23.42;;;6.30;;
14133;SDS011;7147;59.364;18.018;2022-12-18T10:39:33;20.30;;;6.18;;
14133;SDS011;7147;59.364;18.018;2022-12-18T10:42:09;22.63;;;6.40;;
14133;SDS011;7147;59.364;18.018;2022-12-18T10:44:38;24.02;;;6.57;;
14133;SDS011;7147;59.364;18.018;2022-12-18T10:47:06;25.63;;;6.63;;
14133;SDS011;7147;59.364;18.018;2022-12-18T10:49:41;26.70;;;7.10;;
14133;SDS011;7147;59.364;18.018;2022-12-18T10:52:15;23.60;;;6.20;;
14133;SDS011;7147;59.364;18.018;2022-12-18T10:54:49;27.15;;;7.10;;
14133;SDS011;7147;59.364;18.018;2022-12-18T10:57:29;24.08;;;6.50;;
14133;SDS011;7147;59.364;18.018;2022-12-18T10:59:58;21.05;;;5.88;;
14133;SDS011;7147;59.364;18.018;2022-12-18T11:02:28;22.63;;;6.13;;
14133;SDS011;7147;59.364;18.018;2022-12-18T11:05:00;22.20;;;6.17;;
14133;SDS011;7147;59.364;18.018;2022-12-18T11:07:35;26.52;;;6.47;;
14133;SDS011;7147;59.364;18.018;2022-12-18T11:10:17;20.45;;;6.03;;
14133;SDS011;7147;59.364;18.018;2022-12-18T11:12:45;23.53;;;6.50;;
14133;SDS011;7147;59.364;18.018;2022-12-18T11:15:16;29.73;;;8.23;;
14133;SDS011;7147;59.364;18.018;2022-12-18T11:17:46;6.88;;;3.00;;
14133;SDS011;7147;59.364;18.018;2022-12-18T11:20:19;18.77;;;6.00;;
14133;SDS011;7147;59.364;18.018;2022-12-18T11:22:54;14.52;;;5.10;;
14133;SDS011;7147;59.364;18.018;2022-12-18T11:25:25;15.50;;;5.03;;
14133;SDS011;7147;59.364;18.018;2022-12-18T11:27:53;25.73;;;6.63;;
14133;SDS011;7147;59.364;18.018;2022-12-18T11:30:23;9.32;;;3.58;;
14133;SDS011;7147;59.364;18.018;2022-12-18T11:32:52;10.07;;;3.75;;
14133;SDS011;7147;59.364;18.018;2022-12-18T11:35:25;14.10;;;4.68;;
14133;SDS011;7147;59.364;18.018;2022-12-18T11:38:16;12.52;;;3.90;;
14133;SDS011;7147;59.364;18.018;2022-12-18T11:40:49;18.52;;;5.43;;
14133;SDS011;7147;59.364;18.018;2022-12-18T11:43:21;19.90;;;5.80;;
14133;SDS011;7147;59.364;18.018;2022-12-18T11:45:55;22.53;;;5.77;;
14133;SDS011;7147;59.364;18.018;2022-12-18T11:48:28;26.15;;;6.70;;
14133;SDS011;7147;59.364;18.018;2022-12-18T11:51:00;22.02;;;6.15;;
14133;SDS011;7147;59.364;18.018;2022-12-18T11:53:30;15.55;;;4.75;;
14133;SDS011;7147;59.364;18.018;2022-12-18T11:56:07;9.47;;;4.13;;
14133;SDS011;7147;59.364;18.018;2022-12-18T11:58:46;7.55;;;3.20;;
14133;SDS011;7147;59.364;18.018;2022-12-18T12:01:20;10.77;;;3.63;;
14133;SDS011;7147;59.364;18.018;2022-12-18T12:04:06;11.32;;;4.18;;
14133;SDS011;7147;59.364;18.018;2022-12-18T12:06:49;17.55;;;5.50;;
14133;SDS011;7147;59.364;18.018;2022-12-18T12:09:24;26.10;;;6.40;;
14133;SDS011;7147;59.364;18.018;2022-12-18T12:12:01;21.67;;;5.70;;
14133;SDS011;7147;59.364;18.018;2022-12-18T12:14:41;13.50;;;4.87;;
14133;SDS011;7147;59.364;18.018;2022-12-18T12:17:17;7.40;;;2.72;;
14133;SDS011;7147;59.364;18.018;2022-12-18T12:19:54;9.40;;;3.35;;
14133;SDS011;7147;59.364;18.018;2022-12-18T12:22:30;7.65;;;3.03;;
14133;SDS011;7147;59.364;18.018;2022-12-18T12:25:10;9.15;;;3.28;;
14133;SDS011;7147;59.364;18.018;2022-12-18T12:27:48;20.63;;;5.85;;
14133;SDS011;7147;59.364;18.018;2022-12-18T12:30:26;14.25;;;4.72;;
14133;SDS011;7147;59.364;18.018;2022-12-18T12:33:04;16.73;;;5.18;;
14133;SDS011;7147;59.364;18.018;2022-12-18T12:35:44;16.42;;;5.18;;
14133;SDS011;7147;59.364;18.018;2022-12-18T12:38:16;19.33;;;5.70;;
14133;SDS011;7147;59.364;18.018;2022-12-18T12:40:47;21.10;;;5.65;;
14133;SDS011;7147;59.364;18.018;2022-12-18T12:43:24;23.60;;;6.40;;
14133;SDS011;7147;59.364;18.018;2022-12-18T12:45:57;23.05;;;6.15;;
14133;SDS011;7147;59.364;18.018;2022-12-18T12:48:34;20.50;;;6.10;;
14133;SDS011;7147;59.364;18.018;2022-12-18T12:51:07;15.97;;;4.93;;
14133;SDS011;7147;59.364;18.018;2022-12-18T12:53:40;9.10;;;3.33;;
14133;SDS011;7147;59.364;18.018;2022-12-18T12:56:08;10.77;;;3.67;;
14133;SDS011;7147;59.364;18.018;2022-12-18T12:58:41;25.20;;;6.80;;
14133;SDS011;7147;59.364;18.018;2022-12-18T13:01:24;31.60;;;7.45;;
14133;SDS011;7147;59.364;18.018;2022-12-18T13:03:56;17.25;;;5.25;;
14133;SDS011;7147;59.364;18.018;2022-12-18T13:06:35;24.58;;;6.43;;
14133;SDS011;7147;59.364;18.018;2022-12-18T13:09:08;15.70;;;4.77;;
14133;SDS011;7147;59.364;18.018;2022-12-18T13:11:36;22.70;;;6.07;;
14133;SDS011;7147;59.364;18.018;2022-12-18T13:14:24;21.77;;;6.00;;
14133;SDS011;7147;59.364;18.018;2022-12-18T13:20:09;9.45;;;3.60;;
14133;SDS011;7147;59.364;18.018;2022-12-18T13:22:37;11.65;;;4.15;;
14133;SDS011;7147;59.364;18.018;2022-12-18T13:28:00;12.27;;;4.38;;
14133;SDS011;7147;59.364;18.018;2022-12-18T13:36:16;12.50;;;4.70;;
14133;SDS011;7147;59.364;18.018;2022-12-18T13:48:20;19.85;;;4.55;;
14133;SDS011;7147;59.364;18.018;2022-12-18T13:50:49;20.33;;;5.93;;
14133;SDS011;7147;59.364;18.018;2022-12-18T13:53:21;6.15;;;2.17;;
14133;SDS011;7147;59.364;18.018;2022-12-18T13:55:53;6.78;;;2.22;;
14133;SDS011;7147;59.364;18.018;2022-12-18T13:58:21;30.48;;;6.90;;
14133;SDS011;7147;59.364;18.018;2022-12-18T14:00:48;31.80;;;6.85;;
14133;SDS011;7147;59.364;18.018;2022-12-18T14:03:16;36.15;;;7.72;;
14133;SDS011;7147;59.364;18.018;2022-12-18T14:05:46;38.85;;;7.93;;
14133;SDS011;7147;59.364;18.018;2022-12-18T14:08:20;33.90;;;7.13;;
14133;SDS011;7147;59.364;18.018;2022-12-18T14:10:48;50.00;;;9.57;;
14133;SDS011;7147;59.364;18.018;2022-12-18T14:13:19;47.35;;;8.88;;
14133;SDS011;7147;59.364;18.018;2022-12-18T14:15:50;30.00;;;6.82;;
14133;SDS011;7147;59.364;18.018;2022-12-18T14:18:22;56.20;;;10.77;;
14133;SDS011;7147;59.364;18.018;2022-12-18T14:20:53;49.53;;;9.88;;
14133;SDS011;7147;59.364;18.018;2022-12-18T14:23:27;58.97;;;11.38;;
14133;SDS011;7147;59.364;18.018;2022-12-18T14:25:55;53.08;;;10.07;;
14133;SDS011;7147;59.364;18.018;2022-12-18T14:28:23;74.88;;;13.88;;
14133;SDS011;7147;59.364;18.018;2022-12-18T14:30:51;68.22;;;13.13;;
14133;SDS011;7147;59.364;18.018;2022-12-18T14:33:23;56.33;;;10.30;;
14133;SDS011;7147;59.364;18.018;2022-12-18T14:35:56;56.70;;;10.53;;
14133;SDS011;7147;59.364;18.018;2022-12-18T14:38:29;54.65;;;10.38;;
14133;SDS011;7147;59.364;18.018;2022-12-18T14:40:59;52.20;;;10.37;;
14133;SDS011;7147;59.364;18.018;2022-12-18T14:43:27;44.13;;;9.13;;
14133;SDS011;7147;59.364;18.018;2022-12-18T14:45:55;41.28;;;8.45;;
14133;SDS011;7147;59.364;18.018;2022-12-18T14:48:30;40.37;;;8.13;;
14133;SDS011;7147;59.364;18.018;2022-12-18T14:51:03;42.63;;;8.70;;
14133;SDS011;7147;59.364;18.018;2022-12-18T14:53:33;67.97;;;13.98;;
14133;SDS011;7147;59.364;18.018;2022-12-18T14:56:03;52.37;;;10.43;;
14133;SDS011;7147;59.364;18.018;2022-12-18T14:58:44;52.28;;;10.15;;
14133;SDS011;7147;59.364;18.018;2022-12-18T15:01:17;66.55;;;12.40;;
14133;SDS011;7147;59.364;18.018;2022-12-18T15:03:45;70.05;;;13.27;;
14133;SDS011;7147;59.364;18.018;2022-12-18T15:06:17;49.15;;;9.52;;
14133;SDS011;7147;59.364;18.018;2022-12-18T15:08:51;60.97;;;11.80;;
14133;SDS011;7147;59.364;18.018;2022-12-18T15:11:28;46.20;;;9.23;;
14133;SDS011;7147;59.364;18.018;2022-12-18T15:13:59;40.90;;;8.35;;
14133;SDS011;7147;59.364;18.018;2022-12-18T15:16:49;9.40;;;3.08;;